sensor_id;sensor_type;location;lat;lon;timestamp;pressure;altitude;pressure_sealevel;temperature
71081;BMP180;58740;50.672;18.690;2023-11-19T00:00:19;99466.80;;;1.50
71081;BMP180;58740;50.672;18.690;2023-11-19T00:03:13;99457.40;;;1.40
71081;BMP180;58740;50.672;18.690;2023-11-19T00:05:46;99473.40;;;1.40
71081;BMP180;58740;50.672;18.690;2023-11-19T00:08:20;99473.40;;;1.40
71081;BMP180;58740;50.672;18.690;2023-11-19T00:10:53;99463.00;;;1.40
71081;BMP180;58740;50.672;18.690;2023-11-19T00:13:26;99448.60;;;1.40
71081;BMP180;58740;50.672;18.690;2023-11-19T00:16:00;99441.20;;;1.40
71081;BMP180;58740;50.672;18.690;2023-11-19T00:18:36;99434.40;;;1.40
71081;BMP180;58740;50.672;18.690;2023-11-19T00:21:10;99434.60;;;1.50
71081;BMP180;58740;50.672;18.690;2023-11-19T00:23:43;99431.60;;;1.50
71081;BMP180;58740;50.672;18.690;2023-11-19T00:26:16;99440.60;;;1.60
71081;BMP180;58740;50.672;18.690;2023-11-19T00:28:50;99451.00;;;1.60
71081;BMP180;58740;50.672;18.690;2023-11-19T00:31:25;99460.40;;;1.60
71081;BMP180;58740;50.672;18.690;2023-11-19T00:34:00;99458.80;;;1.60
71081;BMP180;58740;50.672;18.690;2023-11-19T00:36:34;99457.40;;;1.66
71081;BMP180;58740;50.672;18.690;2023-11-19T00:39:07;99456.00;;;1.70
71081;BMP180;58740;50.672;18.690;2023-11-19T00:41:40;99455.40;;;1.70
71081;BMP180;58740;50.672;18.690;2023-11-19T00:44:14;99455.60;;;1.62
71081;BMP180;58740;50.672;18.690;2023-11-19T00:46:47;99456.40;;;1.60
71081;BMP180;58740;50.672;18.690;2023-11-19T00:49:21;99445.80;;;1.60
71081;BMP180;58740;50.672;18.690;2023-11-19T00:51:54;99445.20;;;1.60
71081;BMP180;58740;50.672;18.690;2023-11-19T00:54:28;99444.80;;;1.60
71081;BMP180;58740;50.672;18.690;2023-11-19T00:57:02;99446.60;;;1.60
71081;BMP180;58740;50.672;18.690;2023-11-19T00:59:35;99447.20;;;1.60
71081;BMP180;58740;50.672;18.690;2023-11-19T01:02:12;99439.40;;;1.50
71081;BMP180;58740;50.672;18.690;2023-11-19T01:04:46;99435.40;;;1.50
71081;BMP180;58740;50.672;18.690;2023-11-19T01:07:20;99438.20;;;1.50
71081;BMP180;58740;50.672;18.690;2023-11-19T01:09:54;99421.80;;;1.50
71081;BMP180;58740;50.672;18.690;2023-11-19T01:12:28;99418.40;;;1.50
71081;BMP180;58740;50.672;18.690;2023-11-19T01:15:04;99414.80;;;1.50
71081;BMP180;58740;50.672;18.690;2023-11-19T01:17:39;99410.20;;;1.50
71081;BMP180;58740;50.672;18.690;2023-11-19T01:20:18;99406.40;;;1.50
71081;BMP180;58740;50.672;18.690;2023-11-19T01:22:53;99403.00;;;1.50
71081;BMP180;58740;50.672;18.690;2023-11-19T01:25:26;99400.00;;;1.50
71081;BMP180;58740;50.672;18.690;2023-11-19T01:28:02;99392.20;;;1.50
71081;BMP180;58740;50.672;18.690;2023-11-19T01:30:37;99381.00;;;1.48
71081;BMP180;58740;50.672;18.690;2023-11-19T01:33:10;99378.00;;;1.50
71081;BMP180;58740;50.672;18.690;2023-11-19T01:35:44;99374.20;;;1.50
71081;BMP180;58740;50.672;18.690;2023-11-19T01:38:17;99379.60;;;1.50
71081;BMP180;58740;50.672;18.690;2023-11-19T01:40:51;99373.40;;;1.50
71081;BMP180;58740;50.672;18.690;2023-11-19T01:43:39;99364.80;;;1.50
71081;BMP180;58740;50.672;18.690;2023-11-19T01:46:15;99361.80;;;1.50
71081;BMP180;58740;50.672;18.690;2023-11-19T01:48:50;99363.00;;;1.50
71081;BMP180;58740;50.672;18.690;2023-11-19T01:51:24;99346.60;;;1.50
71081;BMP180;58740;50.672;18.690;2023-11-19T01:53:58;99330.40;;;1.52
71081;BMP180;58740;50.672;18.690;2023-11-19T01:56:33;99329.00;;;1.60
71081;BMP180;58740;50.672;18.690;2023-11-19T01:59:07;99312.80;;;1.70
71081;BMP180;58740;50.672;18.690;2023-11-19T02:01:43;99300.00;;;1.70
71081;BMP180;58740;50.672;18.690;2023-11-19T02:04:16;99281.20;;;1.70
71081;BMP180;58740;50.672;18.690;2023-11-19T02:06:53;99268.00;;;1.70
71081;BMP180;58740;50.672;18.690;2023-11-19T02:09:27;99260.40;;;1.74
71081;BMP180;58740;50.672;18.690;2023-11-19T02:12:02;99264.60;;;1.78
71081;BMP180;58740;50.672;18.690;2023-11-19T02:14:37;99263.40;;;1.80
71081;BMP180;58740;50.672;18.690;2023-11-19T02:17:28;99255.60;;;1.72
71081;BMP180;58740;50.672;18.690;2023-11-19T02:20:04;99257.00;;;1.70
71081;BMP180;58740;50.672;18.690;2023-11-19T02:22:39;99260.40;;;1.70
71081;BMP180;58740;50.672;18.690;2023-11-19T02:25:19;99266.60;;;1.70
71081;BMP180;58740;50.672;18.690;2023-11-19T02:27:58;99261.00;;;1.70
71081;BMP180;58740;50.672;18.690;2023-11-19T02:30:32;99250.80;;;1.70
71081;BMP180;58740;50.672;18.690;2023-11-19T02:33:05;99243.20;;;1.60
71081;BMP180;58740;50.672;18.690;2023-11-19T02:35:39;99230.80;;;1.60
71081;BMP180;58740;50.672;18.690;2023-11-19T02:38:13;99228.20;;;1.60
71081;BMP180;58740;50.672;18.690;2023-11-19T02:40:47;99224.60;;;1.60
71081;BMP180;58740;50.672;18.690;2023-11-19T02:43:21;99206.40;;;1.62
71081;BMP180;58740;50.672;18.690;2023-11-19T02:45:54;99188.00;;;1.70
71081;BMP180;58740;50.672;18.690;2023-11-19T02:48:28;99196.60;;;1.70
71081;BMP180;58740;50.672;18.690;2023-11-19T02:51:03;99192.40;;;1.70
71081;BMP180;58740;50.672;18.690;2023-11-19T02:53:36;99184.00;;;1.80
71081;BMP180;58740;50.672;18.690;2023-11-19T02:56:12;99184.20;;;1.76
71081;BMP180;58740;50.672;18.690;2023-11-19T02:58:52;99190.00;;;1.70
71081;BMP180;58740;50.672;18.690;2023-11-19T03:01:26;99202.00;;;1.70
71081;BMP180;58740;50.672;18.690;2023-11-19T03:04:04;99199.80;;;1.66
71081;BMP180;58740;50.672;18.690;2023-11-19T03:06:37;99198.20;;;1.60
71081;BMP180;58740;50.672;18.690;2023-11-19T03:09:11;99192.60;;;1.60
71081;BMP180;58740;50.672;18.690;2023-11-19T03:11:44;99198.40;;;1.60
71081;BMP180;58740;50.672;18.690;2023-11-19T03:14:18;99201.20;;;1.60
71081;BMP180;58740;50.672;18.690;2023-11-19T03:16:51;99196.60;;;1.60
71081;BMP180;58740;50.672;18.690;2023-11-19T03:19:24;99199.20;;;1.52
71081;BMP180;58740;50.672;18.690;2023-11-19T03:21:58;99191.00;;;1.50
71081;BMP180;58740;50.672;18.690;2023-11-19T03:24:33;99182.80;;;1.50
71081;BMP180;58740;50.672;18.690;2023-11-19T03:27:06;99174.80;;;1.50
71081;BMP180;58740;50.672;18.690;2023-11-19T03:29:40;99164.00;;;1.50
71081;BMP180;58740;50.672;18.690;2023-11-19T03:32:13;99150.60;;;1.50
71081;BMP180;58740;50.672;18.690;2023-11-19T03:34:47;99147.80;;;1.50
71081;BMP180;58740;50.672;18.690;2023-11-19T03:37:20;99146.80;;;1.50
71081;BMP180;58740;50.672;18.690;2023-11-19T03:39:54;99134.40;;;1.54
71081;BMP180;58740;50.672;18.690;2023-11-19T03:42:34;99133.60;;;1.60
71081;BMP180;58740;50.672;18.690;2023-11-19T03:45:09;99133.60;;;1.60
71081;BMP180;58740;50.672;18.690;2023-11-19T03:47:43;99136.40;;;1.58
71081;BMP180;58740;50.672;18.690;2023-11-19T03:50:16;99125.80;;;1.50
71081;BMP180;58740;50.672;18.690;2023-11-19T03:52:52;99124.40;;;1.50
71081;BMP180;58740;50.672;18.690;2023-11-19T03:55:25;99121.80;;;1.50
71081;BMP180;58740;50.672;18.690;2023-11-19T03:57:59;99118.00;;;1.50
71081;BMP180;58740;50.672;18.690;2023-11-19T04:00:33;99118.00;;;1.50
71081;BMP180;58740;50.672;18.690;2023-11-19T04:03:06;99109.00;;;1.58
71081;BMP180;58740;50.672;18.690;2023-11-19T04:05:40;99099.60;;;1.60
71081;BMP180;58740;50.672;18.690;2023-11-19T04:08:13;99106.00;;;1.60
71081;BMP180;58740;50.672;18.690;2023-11-19T04:10:46;99110.40;;;1.60
71081;BMP180;58740;50.672;18.690;2023-11-19T04:13:20;99100.00;;;1.70
71081;BMP180;58740;50.672;18.690;2023-11-19T04:15:54;99088.00;;;1.70
71081;BMP180;58740;50.672;18.690;2023-11-19T04:18:27;99072.20;;;1.70
71081;BMP180;58740;50.672;18.690;2023-11-19T04:21:00;99058.40;;;1.70
71081;BMP180;58740;50.672;18.690;2023-11-19T04:23:34;99055.60;;;1.70
71081;BMP180;58740;50.672;18.690;2023-11-19T04:26:07;99053.20;;;1.70
71081;BMP180;58740;50.672;18.690;2023-11-19T04:28:42;99050.20;;;1.70
71081;BMP180;58740;50.672;18.690;2023-11-19T04:31:16;99050.20;;;1.70
71081;BMP180;58740;50.672;18.690;2023-11-19T04:33:49;99038.20;;;1.70
71081;BMP180;58740;50.672;18.690;2023-11-19T04:36:26;99031.40;;;1.70
71081;BMP180;58740;50.672;18.690;2023-11-19T04:39:02;99031.00;;;1.70
71081;BMP180;58740;50.672;18.690;2023-11-19T04:41:44;99030.80;;;1.66
71081;BMP180;58740;50.672;18.690;2023-11-19T04:44:18;99034.60;;;1.62
71081;BMP180;58740;50.672;18.690;2023-11-19T04:46:51;99035.40;;;1.60
71081;BMP180;58740;50.672;18.690;2023-11-19T04:49:25;99030.60;;;1.60
71081;BMP180;58740;50.672;18.690;2023-11-19T04:51:59;99031.20;;;1.60
71081;BMP180;58740;50.672;18.690;2023-11-19T04:54:33;99028.00;;;1.60
71081;BMP180;58740;50.672;18.690;2023-11-19T04:57:07;99024.00;;;1.70
71081;BMP180;58740;50.672;18.690;2023-11-19T04:59:41;99021.00;;;1.70
71081;BMP180;58740;50.672;18.690;2023-11-19T05:02:15;99022.00;;;1.70
71081;BMP180;58740;50.672;18.690;2023-11-19T05:04:48;99012.00;;;1.70
71081;BMP180;58740;50.672;18.690;2023-11-19T05:07:22;99002.40;;;1.70
71081;BMP180;58740;50.672;18.690;2023-11-19T05:09:55;98993.20;;;1.70
71081;BMP180;58740;50.672;18.690;2023-11-19T05:12:28;98989.00;;;1.70
71081;BMP180;58740;50.672;18.690;2023-11-19T05:15:02;98980.80;;;1.70
71081;BMP180;58740;50.672;18.690;2023-11-19T05:17:36;98972.40;;;1.70
71081;BMP180;58740;50.672;18.690;2023-11-19T05:20:11;98958.80;;;1.60
71081;BMP180;58740;50.672;18.690;2023-11-19T05:22:46;98956.60;;;1.60
71081;BMP180;58740;50.672;18.690;2023-11-19T05:25:20;98955.80;;;1.50
71081;BMP180;58740;50.672;18.690;2023-11-19T05:27:53;98941.20;;;1.50
71081;BMP180;58740;50.672;18.690;2023-11-19T05:30:26;98939.20;;;1.50
71081;BMP180;58740;50.672;18.690;2023-11-19T05:33:00;98936.60;;;1.40
71081;BMP180;58740;50.672;18.690;2023-11-19T05:35:33;98927.60;;;1.40
71081;BMP180;58740;50.672;18.690;2023-11-19T05:38:07;98933.60;;;1.40
71081;BMP180;58740;50.672;18.690;2023-11-19T05:40:42;98931.80;;;1.40
71081;BMP180;58740;50.672;18.690;2023-11-19T05:43:15;98936.80;;;1.40
71081;BMP180;58740;50.672;18.690;2023-11-19T05:45:49;98941.60;;;1.40
71081;BMP180;58740;50.672;18.690;2023-11-19T05:48:24;98949.60;;;1.40
71081;BMP180;58740;50.672;18.690;2023-11-19T05:50:57;98950.80;;;1.40
71081;BMP180;58740;50.672;18.690;2023-11-19T05:53:31;98944.20;;;1.48
71081;BMP180;58740;50.672;18.690;2023-11-19T05:56:04;98953.40;;;1.50
71081;BMP180;58740;50.672;18.690;2023-11-19T05:58:41;98949.60;;;1.50
71081;BMP180;58740;50.672;18.690;2023-11-19T06:01:17;98943.60;;;1.50
71081;BMP180;58740;50.672;18.690;2023-11-19T06:03:50;98944.00;;;1.50
71081;BMP180;58740;50.672;18.690;2023-11-19T06:06:24;98950.20;;;1.40
71081;BMP180;58740;50.672;18.690;2023-11-19T06:08:57;98947.40;;;1.40
71081;BMP180;58740;50.672;18.690;2023-11-19T06:11:43;98953.40;;;1.50
71081;BMP180;58740;50.672;18.690;2023-11-19T06:14:16;98955.40;;;1.50
71081;BMP180;58740;50.672;18.690;2023-11-19T06:16:50;98950.60;;;1.50
71081;BMP180;58740;50.672;18.690;2023-11-19T06:19:24;98942.00;;;1.50
71081;BMP180;58740;50.672;18.690;2023-11-19T06:22:01;98929.20;;;1.50
71081;BMP180;58740;50.672;18.690;2023-11-19T06:24:35;98913.60;;;1.50
71081;BMP180;58740;50.672;18.690;2023-11-19T06:27:12;98915.20;;;1.50
71081;BMP180;58740;50.672;18.690;2023-11-19T06:29:46;98922.60;;;1.50
71081;BMP180;58740;50.672;18.690;2023-11-19T06:32:19;98915.60;;;1.50
71081;BMP180;58740;50.672;18.690;2023-11-19T06:34:52;98904.40;;;1.40
71081;BMP180;58740;50.672;18.690;2023-11-19T06:37:26;98905.80;;;1.40
71081;BMP180;58740;50.672;18.690;2023-11-19T06:39:59;98901.80;;;1.40
71081;BMP180;58740;50.672;18.690;2023-11-19T06:42:33;98891.80;;;1.40
71081;BMP180;58740;50.672;18.690;2023-11-19T06:45:08;98885.20;;;1.40
71081;BMP180;58740;50.672;18.690;2023-11-19T06:47:41;98887.60;;;1.40
71081;BMP180;58740;50.672;18.690;2023-11-19T06:50:15;98881.80;;;1.30
71081;BMP180;58740;50.672;18.690;2023-11-19T06:52:49;98879.20;;;1.30
71081;BMP180;58740;50.672;18.690;2023-11-19T06:55:22;98869.80;;;1.30
71081;BMP180;58740;50.672;18.690;2023-11-19T06:57:55;98863.00;;;1.30
71081;BMP180;58740;50.672;18.690;2023-11-19T07:00:29;98858.40;;;1.28
71081;BMP180;58740;50.672;18.690;2023-11-19T07:03:04;98845.20;;;1.24
71081;BMP180;58740;50.672;18.690;2023-11-19T07:05:41;98845.60;;;1.30
71081;BMP180;58740;50.672;18.690;2023-11-19T07:08:14;98834.60;;;1.30
71081;BMP180;58740;50.672;18.690;2023-11-19T07:10:47;98843.40;;;1.24
71081;BMP180;58740;50.672;18.690;2023-11-19T07:13:20;98852.80;;;1.24
71081;BMP180;58740;50.672;18.690;2023-11-19T07:15:55;98856.40;;;1.30
71081;BMP180;58740;50.672;18.690;2023-11-19T07:18:29;98849.20;;;1.30
71081;BMP180;58740;50.672;18.690;2023-11-19T07:21:04;98843.00;;;1.40
71081;BMP180;58740;50.672;18.690;2023-11-19T07:23:37;98846.60;;;1.40
71081;BMP180;58740;50.672;18.690;2023-11-19T07:26:11;98837.80;;;1.44
71081;BMP180;58740;50.672;18.690;2023-11-19T07:28:44;98832.80;;;1.42
71081;BMP180;58740;50.672;18.690;2023-11-19T07:31:18;98819.40;;;1.50
71081;BMP180;58740;50.672;18.690;2023-11-19T07:33:52;98815.40;;;1.50
71081;BMP180;58740;50.672;18.690;2023-11-19T07:36:26;98808.80;;;1.50
71081;BMP180;58740;50.672;18.690;2023-11-19T07:38:59;98805.40;;;1.50
71081;BMP180;58740;50.672;18.690;2023-11-19T07:41:33;98803.80;;;1.50
71081;BMP180;58740;50.672;18.690;2023-11-19T07:44:07;98796.80;;;1.58
71081;BMP180;58740;50.672;18.690;2023-11-19T07:46:40;98781.00;;;1.58
71081;BMP180;58740;50.672;18.690;2023-11-19T07:49:14;98782.00;;;1.60
71081;BMP180;58740;50.672;18.690;2023-11-19T07:51:48;98768.40;;;1.60
71081;BMP180;58740;50.672;18.690;2023-11-19T07:54:21;98767.00;;;1.52
71081;BMP180;58740;50.672;18.690;2023-11-19T07:56:54;98756.80;;;1.50
71081;BMP180;58740;50.672;18.690;2023-11-19T07:59:28;98759.40;;;1.50
71081;BMP180;58740;50.672;18.690;2023-11-19T08:02:02;98760.60;;;1.60
71081;BMP180;58740;50.672;18.690;2023-11-19T08:04:35;98767.20;;;1.60
71081;BMP180;58740;50.672;18.690;2023-11-19T08:07:12;98774.60;;;1.60
71081;BMP180;58740;50.672;18.690;2023-11-19T08:09:45;98767.40;;;1.60
71081;BMP180;58740;50.672;18.690;2023-11-19T08:12:19;98754.20;;;1.60
71081;BMP180;58740;50.672;18.690;2023-11-19T08:14:52;98753.00;;;1.66
71081;BMP180;58740;50.672;18.690;2023-11-19T08:17:25;98758.20;;;1.70
71081;BMP180;58740;50.672;18.690;2023-11-19T08:19:59;98754.80;;;1.70
71081;BMP180;58740;50.672;18.690;2023-11-19T08:22:33;98746.00;;;1.70
71081;BMP180;58740;50.672;18.690;2023-11-19T08:25:08;98744.80;;;1.70
71081;BMP180;58740;50.672;18.690;2023-11-19T08:27:42;98735.80;;;1.70
71081;BMP180;58740;50.672;18.690;2023-11-19T08:30:16;98739.40;;;1.70
71081;BMP180;58740;50.672;18.690;2023-11-19T08:32:49;98742.40;;;1.78
71081;BMP180;58740;50.672;18.690;2023-11-19T08:35:23;98731.80;;;1.80
71081;BMP180;58740;50.672;18.690;2023-11-19T08:37:57;98724.20;;;1.80
71081;BMP180;58740;50.672;18.690;2023-11-19T08:40:31;98705.40;;;1.80
71081;BMP180;58740;50.672;18.690;2023-11-19T08:43:04;98699.00;;;1.80
71081;BMP180;58740;50.672;18.690;2023-11-19T08:45:38;98710.20;;;1.82
71081;BMP180;58740;50.672;18.690;2023-11-19T08:48:12;98715.00;;;1.90
71081;BMP180;58740;50.672;18.690;2023-11-19T08:50:45;98701.60;;;1.90
71081;BMP180;58740;50.672;18.690;2023-11-19T08:53:19;98696.40;;;1.90
71081;BMP180;58740;50.672;18.690;2023-11-19T08:55:52;98691.40;;;1.90
71081;BMP180;58740;50.672;18.690;2023-11-19T08:58:26;98680.40;;;1.90
71081;BMP180;58740;50.672;18.690;2023-11-19T09:00:59;98678.40;;;1.96
71081;BMP180;58740;50.672;18.690;2023-11-19T09:03:35;98679.20;;;2.00
71081;BMP180;58740;50.672;18.690;2023-11-19T09:06:09;98685.40;;;2.00
71081;BMP180;58740;50.672;18.690;2023-11-19T09:08:43;98682.80;;;2.10
71081;BMP180;58740;50.672;18.690;2023-11-19T09:11:18;98682.40;;;2.10
71081;BMP180;58740;50.672;18.690;2023-11-19T09:13:51;98674.20;;;2.10
71081;BMP180;58740;50.672;18.690;2023-11-19T09:16:24;98664.00;;;2.10
71081;BMP180;58740;50.672;18.690;2023-11-19T09:18:58;98653.20;;;2.10
71081;BMP180;58740;50.672;18.690;2023-11-19T09:21:33;98653.00;;;2.18
71081;BMP180;58740;50.672;18.690;2023-11-19T09:24:10;98647.40;;;2.20
71081;BMP180;58740;50.672;18.690;2023-11-19T09:26:47;98644.00;;;2.20
71081;BMP180;58740;50.672;18.690;2023-11-19T09:29:20;98642.20;;;2.20
71081;BMP180;58740;50.672;18.690;2023-11-19T09:31:54;98639.20;;;2.20
71081;BMP180;58740;50.672;18.690;2023-11-19T09:34:27;98635.40;;;2.20
71081;BMP180;58740;50.672;18.690;2023-11-19T09:37:01;98622.80;;;2.20
71081;BMP180;58740;50.672;18.690;2023-11-19T09:39:34;98620.60;;;2.30
71081;BMP180;58740;50.672;18.690;2023-11-19T09:42:08;98625.40;;;2.30
71081;BMP180;58740;50.672;18.690;2023-11-19T09:44:46;98616.00;;;2.30
71081;BMP180;58740;50.672;18.690;2023-11-19T09:47:22;98612.80;;;2.30
71081;BMP180;58740;50.672;18.690;2023-11-19T09:49:56;98600.20;;;2.40
71081;BMP180;58740;50.672;18.690;2023-11-19T09:52:30;98593.40;;;2.40
71081;BMP180;58740;50.672;18.690;2023-11-19T09:55:04;98585.20;;;2.40
71081;BMP180;58740;50.672;18.690;2023-11-19T09:57:39;98574.60;;;2.40
71081;BMP180;58740;50.672;18.690;2023-11-19T10:00:16;98576.00;;;2.40
71081;BMP180;58740;50.672;18.690;2023-11-19T10:02:51;98565.80;;;2.44
71081;BMP180;58740;50.672;18.690;2023-11-19T10:05:26;98565.20;;;2.42
71081;BMP180;58740;50.672;18.690;2023-11-19T10:08:00;98561.80;;;2.48
71081;BMP180;58740;50.672;18.690;2023-11-19T10:10:35;98550.80;;;2.50
71081;BMP180;58740;50.672;18.690;2023-11-19T10:13:08;98552.20;;;2.50
71081;BMP180;58740;50.672;18.690;2023-11-19T10:15:42;98547.80;;;2.50
71081;BMP180;58740;50.672;18.690;2023-11-19T10:18:18;98538.20;;;2.52
71081;BMP180;58740;50.672;18.690;2023-11-19T10:20:52;98548.60;;;2.50
71081;BMP180;58740;50.672;18.690;2023-11-19T10:23:27;98531.80;;;2.50
71081;BMP180;58740;50.672;18.690;2023-11-19T10:26:06;98523.40;;;2.50
71081;BMP180;58740;50.672;18.690;2023-11-19T10:28:43;98515.60;;;2.40
71081;BMP180;58740;50.672;18.690;2023-11-19T10:31:19;98506.80;;;2.40
71081;BMP180;58740;50.672;18.690;2023-11-19T10:33:56;98494.00;;;2.40
71081;BMP180;58740;50.672;18.690;2023-11-19T10:36:41;98482.60;;;2.30
71081;BMP180;58740;50.672;18.690;2023-11-19T10:39:16;98475.80;;;2.30
71081;BMP180;58740;50.672;18.690;2023-11-19T10:41:50;98469.40;;;2.30
71081;BMP180;58740;50.672;18.690;2023-11-19T10:44:37;98472.00;;;2.22
71081;BMP180;58740;50.672;18.690;2023-11-19T10:47:13;98460.20;;;2.20
71081;BMP180;58740;50.672;18.690;2023-11-19T10:49:47;98460.40;;;2.20
71081;BMP180;58740;50.672;18.690;2023-11-19T10:52:21;98466.80;;;2.20
71081;BMP180;58740;50.672;18.690;2023-11-19T10:55:00;98465.40;;;2.20
71081;BMP180;58740;50.672;18.690;2023-11-19T10:57:40;98467.20;;;2.20
71081;BMP180;58740;50.672;18.690;2023-11-19T11:00:21;98467.80;;;2.20
71081;BMP180;58740;50.672;18.690;2023-11-19T11:03:01;98470.00;;;2.20
71081;BMP180;58740;50.672;18.690;2023-11-19T11:05:35;98458.60;;;2.20
71081;BMP180;58740;50.672;18.690;2023-11-19T11:08:11;98453.40;;;2.20
71081;BMP180;58740;50.672;18.690;2023-11-19T11:10:47;98444.40;;;2.20
71081;BMP180;58740;50.672;18.690;2023-11-19T11:13:27;98434.40;;;2.20
71081;BMP180;58740;50.672;18.690;2023-11-19T11:16:01;98427.40;;;2.20
71081;BMP180;58740;50.672;18.690;2023-11-19T11:18:36;98423.80;;;2.20
71081;BMP180;58740;50.672;18.690;2023-11-19T11:21:15;98418.00;;;2.20
71081;BMP180;58740;50.672;18.690;2023-11-19T11:24:27;98413.20;;;2.24
71081;BMP180;58740;50.672;18.690;2023-11-19T11:27:34;98410.40;;;2.20
71081;BMP180;58740;50.672;18.690;2023-11-19T11:30:29;98411.80;;;2.20
71081;BMP180;58740;50.672;18.690;2023-11-19T11:33:25;98409.00;;;2.20
71081;BMP180;58740;50.672;18.690;2023-11-19T11:36:13;98400.00;;;2.22
71081;BMP180;58740;50.672;18.690;2023-11-19T11:38:50;98399.00;;;2.30
71081;BMP180;58740;50.672;18.690;2023-11-19T11:41:26;98400.40;;;2.30
71081;BMP180;58740;50.672;18.690;2023-11-19T11:44:02;98391.40;;;2.30
71081;BMP180;58740;50.672;18.690;2023-11-19T11:46:58;98386.60;;;2.30
71081;BMP180;58740;50.672;18.690;2023-11-19T11:49:33;98389.20;;;2.30
71081;BMP180;58740;50.672;18.690;2023-11-19T11:52:07;98385.60;;;2.30
71081;BMP180;58740;50.672;18.690;2023-11-19T11:54:47;98375.40;;;2.38
71081;BMP180;58740;50.672;18.690;2023-11-19T11:57:21;98382.20;;;2.40
71081;BMP180;58740;50.672;18.690;2023-11-19T11:59:55;98369.80;;;2.40
71081;BMP180;58740;50.672;18.690;2023-11-19T12:02:28;98372.60;;;2.40
71081;BMP180;58740;50.672;18.690;2023-11-19T12:05:03;98360.80;;;2.40
71081;BMP180;58740;50.672;18.690;2023-11-19T12:07:39;98365.80;;;2.40
71081;BMP180;58740;50.672;18.690;2023-11-19T12:10:13;98363.40;;;2.40
71081;BMP180;58740;50.672;18.690;2023-11-19T12:12:48;98356.20;;;2.40
71081;BMP180;58740;50.672;18.690;2023-11-19T12:15:22;98354.80;;;2.48
71081;BMP180;58740;50.672;18.690;2023-11-19T12:17:57;98356.00;;;2.50
71081;BMP180;58740;50.672;18.690;2023-11-19T12:20:34;98347.60;;;2.50
71081;BMP180;58740;50.672;18.690;2023-11-19T12:23:09;98342.80;;;2.50
71081;BMP180;58740;50.672;18.690;2023-11-19T12:25:43;98339.00;;;2.60
71081;BMP180;58740;50.672;18.690;2023-11-19T12:28:18;98343.80;;;2.60
71081;BMP180;58740;50.672;18.690;2023-11-19T12:30:52;98324.00;;;2.60
71081;BMP180;58740;50.672;18.690;2023-11-19T12:33:25;98318.40;;;2.64
71081;BMP180;58740;50.672;18.690;2023-11-19T12:35:59;98317.40;;;2.70
71081;BMP180;58740;50.672;18.690;2023-11-19T12:38:38;98316.80;;;2.70
71081;BMP180;58740;50.672;18.690;2023-11-19T12:41:12;98314.40;;;2.70
71081;BMP180;58740;50.672;18.690;2023-11-19T12:43:49;98315.60;;;2.70
71081;BMP180;58740;50.672;18.690;2023-11-19T12:46:24;98312.20;;;2.76
71081;BMP180;58740;50.672;18.690;2023-11-19T12:48:59;98305.80;;;2.80
71081;BMP180;58740;50.672;18.690;2023-11-19T12:51:35;98312.00;;;2.80
71081;BMP180;58740;50.672;18.690;2023-11-19T12:54:09;98313.40;;;2.80
71081;BMP180;58740;50.672;18.690;2023-11-19T12:56:53;98301.20;;;2.84
71081;BMP180;58740;50.672;18.690;2023-11-19T12:59:26;98298.60;;;2.90
71081;BMP180;58740;50.672;18.690;2023-11-19T13:02:01;98292.80;;;2.84
71081;BMP180;58740;50.672;18.690;2023-11-19T13:04:38;98289.80;;;2.80
71081;BMP180;58740;50.672;18.690;2023-11-19T13:07:11;98290.80;;;2.80
71081;BMP180;58740;50.672;18.690;2023-11-19T13:09:44;98286.20;;;2.88
71081;BMP180;58740;50.672;18.690;2023-11-19T13:12:19;98277.60;;;2.90
71081;BMP180;58740;50.672;18.690;2023-11-19T13:14:52;98266.60;;;2.90
71081;BMP180;58740;50.672;18.690;2023-11-19T13:17:25;98263.00;;;2.90
71081;BMP180;58740;50.672;18.690;2023-11-19T13:19:59;98259.00;;;2.90
71081;BMP180;58740;50.672;18.690;2023-11-19T13:22:35;98255.40;;;2.90
71081;BMP180;58740;50.672;18.690;2023-11-19T13:25:10;98255.00;;;2.90
71081;BMP180;58740;50.672;18.690;2023-11-19T13:27:47;98248.00;;;3.00
71081;BMP180;58740;50.672;18.690;2023-11-19T13:30:21;98246.60;;;3.00
71081;BMP180;58740;50.672;18.690;2023-11-19T13:32:58;98242.40;;;3.00
71081;BMP180;58740;50.672;18.690;2023-11-19T13:35:33;98239.60;;;3.00
71081;BMP180;58740;50.672;18.690;2023-11-19T13:38:07;98237.00;;;3.00
71081;BMP180;58740;50.672;18.690;2023-11-19T13:40:41;98234.40;;;3.00
71081;BMP180;58740;50.672;18.690;2023-11-19T13:43:14;98228.40;;;3.10
71081;BMP180;58740;50.672;18.690;2023-11-19T13:45:47;98228.20;;;3.10
71081;BMP180;58740;50.672;18.690;2023-11-19T13:48:21;98227.20;;;3.10
71081;BMP180;58740;50.672;18.690;2023-11-19T13:50:55;98227.40;;;3.10
71081;BMP180;58740;50.672;18.690;2023-11-19T13:53:28;98225.00;;;3.10
71081;BMP180;58740;50.672;18.690;2023-11-19T13:56:02;98221.60;;;3.16
71081;BMP180;58740;50.672;18.690;2023-11-19T13:58:35;98223.20;;;3.20
71081;BMP180;58740;50.672;18.690;2023-11-19T14:01:09;98222.60;;;3.20
71081;BMP180;58740;50.672;18.690;2023-11-19T14:03:45;98225.60;;;3.20
71081;BMP180;58740;50.672;18.690;2023-11-19T14:06:18;98219.40;;;3.20
71081;BMP180;58740;50.672;18.690;2023-11-19T14:08:52;98223.20;;;3.20
71081;BMP180;58740;50.672;18.690;2023-11-19T14:11:26;98221.80;;;3.20
71081;BMP180;58740;50.672;18.690;2023-11-19T14:13:59;98216.80;;;3.20
71081;BMP180;58740;50.672;18.690;2023-11-19T14:16:33;98212.80;;;3.22
71081;BMP180;58740;50.672;18.690;2023-11-19T14:19:07;98209.40;;;3.26
71081;BMP180;58740;50.672;18.690;2023-11-19T14:21:40;98202.80;;;3.30
71081;BMP180;58740;50.672;18.690;2023-11-19T14:24:14;98201.20;;;3.30
71081;BMP180;58740;50.672;18.690;2023-11-19T14:26:49;98197.00;;;3.30
71081;BMP180;58740;50.672;18.690;2023-11-19T14:29:23;98193.40;;;3.30
71081;BMP180;58740;50.672;18.690;2023-11-19T14:31:58;98195.80;;;3.30
71081;BMP180;58740;50.672;18.690;2023-11-19T14:34:31;98192.80;;;3.40
71081;BMP180;58740;50.672;18.690;2023-11-19T14:37:05;98193.80;;;3.40
71081;BMP180;58740;50.672;18.690;2023-11-19T14:39:38;98200.40;;;3.40
71081;BMP180;58740;50.672;18.690;2023-11-19T14:42:12;98199.40;;;3.40
71081;BMP180;58740;50.672;18.690;2023-11-19T14:44:46;98200.80;;;3.50
71081;BMP180;58740;50.672;18.690;2023-11-19T14:47:19;98200.60;;;3.50
71081;BMP180;58740;50.672;18.690;2023-11-19T14:49:53;98202.20;;;3.50
71081;BMP180;58740;50.672;18.690;2023-11-19T14:52:26;98203.80;;;3.50